LEAM

Almería International Airport

Almería, Spain
TAF LEAM 260200Z 2603/2703 33006KT 9999 SCT030 TX23/2614Z TN16/2606Z PROB40 TEMPO 2603/2609 4000 SHRA SCT025TCU BKN035 BECMG 2610/2612 07010KT
Issued Valid From Valid To
Apr-26 @ 02:00 UTC
(an hour ago)
Apr-26 @ 03:00 UTC
(27 minutes ago)
Apr-27 @ 03:00 UTC
(in 24 hours)
Apr-26 @ 03:00 to Apr-26 @ 10:00
TAF LEAM 260200Z 2603/2703 33006KT 9999 SCT030 TX23/2614Z TN16/2606Z
Wind Visibility Clouds
330° at 6 knots 10,000+ meters
  • Scattered at 3,000' AGL
Temporary  (Probability 40%) Apr-26 @ 03:00 to Apr-26 @ 09:00
PROB40 TEMPO 2603/2609 4000 SHRA SCT025TCU BKN035
Visibility Clouds Conditions
4,007 meters
  • Scattered at 2,500' AGL
  • Broken at 3,500' AGL
  • Rain
Becoming Apr-26 @ 10:00 to Apr-27 @ 03:00
BECMG 2610/2612 07010KT
Wind Visibility Clouds
70° at 10 knots 10,000+ meters
  • Scattered at 3,000' AGL
TAF LEAM 260200Z 2603/2703 33006KT 9999 SCT030 TX23/2614Z TN16/2606Z PROB40 TEMPO 2603/2609 4000 SHRA SCT025TCU BKN035 BECMG 2610/2612 07010KT
Issued Apr-26 @ 02:00 UTC
(an hour ago)
Valid From Apr-26 @ 03:00 UTC
(27 minutes ago)
Valid To Apr-27 @ 03:00 UTC
(in 24 hours)
Apr-26 @ 03:00 - Apr-26 @ 10:00
Wind Visibility
330° at 6 knots 10,000+ meters
Clouds
  • Scattered at 3,000' AGL
Probability 40% Temporary Apr-26 @ 03:00 - Apr-26 @ 09:00
Clouds
  • Scattered at 2,500' AGL
  • Broken at 3,500' AGL
Conditions
  • Rain
Becoming Apr-26 @ 10:00 - Apr-27 @ 03:00
Wind Visibility
70° at 10 knots 10,000+ meters
Clouds
  • Scattered at 3,000' AGL